Time;durP1;ratioP1;P1;durP2;ratioP2;P2;SDS_P1;SDS_P2;PMS_P1;PMS_P2;Temp;Humidity;BMP_temperature;BMP_pressure;BME280_temperature;BME280_humidity;BME280_pressure;Samples;Min_cycle;Max_cycle;Signal;HPM_P1;HPM_P2
2022/01/18 00:01:42;;;;;;;8.40;2.60;;;28.30;67.30;;;;;;4157150;28;20052;-62
2022/01/18 00:04:06;;;;;;;6.38;2.60;;;28.30;67.30;;;;;;4153103;28;20033;-60
2022/01/18 00:06:29;;;;;;;8.68;3.22;;;28.30;67.40;;;;;;4158977;28;20039;-61
2022/01/18 00:08:51;;;;;;;10.15;2.70;;;28.30;67.40;;;;;;4158933;28;20100;-59
2022/01/18 00:11:17;;;;;;;12.70;3.17;;;28.30;67.60;;;;;;4157029;28;20052;-62
2022/01/18 00:13:45;;;;;;;12.45;2.88;;;28.20;67.20;;;;;;4157191;28;20037;-62
2022/01/18 00:16:28;;;;;;;8.35;3.58;;;28.30;67.50;;;;;;4152400;28;20048;-61
2022/01/18 00:18:52;;;;;;;13.60;3.50;;;28.30;67.50;;;;;;4151750;28;20045;-62
2022/01/18 00:21:23;;;;;;;10.63;3.10;;;28.20;67.30;;;;;;4135038;28;20112;-61
2022/01/18 00:23:46;;;;;;;9.73;3.05;;;28.30;67.50;;;;;;4155358;28;20079;-61
2022/01/18 00:26:10;;;;;;;4.93;2.58;;;28.30;67.50;;;;;;4158044;28;20080;-62
2022/01/18 00:28:34;;;;;;;7.93;2.92;;;28.30;67.40;;;;;;4152376;28;20040;-63
2022/01/18 00:36:03;;;;;;;8.10;2.88;;;28.20;67.30;;;;;;4153845;28;20476;-60
2022/01/18 00:38:43;;;;;;;9.50;2.80;;;28.30;67.50;;;;;;4159502;28;20034;-60
2022/01/18 00:41:06;;;;;;;8.48;2.47;;;28.30;67.40;;;;;;4153332;28;20045;-61
2022/01/18 00:43:28;;;;;;;11.70;2.97;;;28.30;67.50;;;;;;4158634;28;20029;-60
2022/01/18 00:45:52;;;;;;;7.13;2.80;;;28.30;67.40;;;;;;4135998;28;20100;-61
2022/01/18 00:48:14;;;;;;;12.13;3.30;;;28.30;67.50;;;;;;4151192;28;20091;-59
2022/01/18 00:50:37;;;;;;;11.93;2.80;;;28.30;67.40;;;;;;4153707;28;20514;-60
2022/01/18 00:53:05;;;;;;;11.63;2.92;;;28.20;67.40;;;;;;4153051;28;20088;-60
2022/01/18 00:55:34;;;;;;;7.22;2.83;;;28.30;67.70;;;;;;4152118;28;20056;-60
2022/01/18 00:57:56;;;;;;;12.55;2.70;;;28.30;67.60;;;;;;4156119;28;20111;-60
2022/01/18 01:00:19;;;;;;;10.57;2.75;;;28.30;67.60;;;;;;4158326;28;20124;-60
2022/01/18 01:02:41;;;;;;;7.30;2.47;;;28.30;68.00;;;;;;4161848;28;20590;-59
2022/01/18 01:05:04;;;;;;;14.57;2.95;;;28.30;67.60;;;;;;4157997;28;20042;-59
2022/01/18 01:07:27;;;;;;;7.15;2.53;;;28.30;67.70;;;;;;4155912;28;20048;-59
2022/01/18 01:09:52;;;;;;;6.90;2.67;;;28.30;68.10;;;;;;4155174;28;20502;-60
2022/01/18 01:12:18;;;;;;;8.57;2.78;;;28.30;68.50;;;;;;4151703;28;20134;-60
2022/01/18 01:14:42;;;;;;;5.88;2.67;;;28.30;68.60;;;;;;4139967;28;20105;-60
2022/01/18 01:43:23;;;;;;;7.00;2.58;;;28.30;67.80;;;;;;4155352;28;20076;-65
2022/01/18 01:45:46;;;;;;;6.85;2.67;;;28.30;67.60;;;;;;4154917;28;20045;-62
2022/01/18 01:48:09;;;;;;;8.93;2.65;;;28.30;67.50;;;;;;4155056;28;20481;-63
2022/01/18 01:50:47;;;;;;;7.13;2.67;;;28.20;67.40;;;;;;4156589;28;20053;-60
2022/01/18 01:53:12;;;;;;;6.80;3.15;;;28.30;67.10;;;;;;4151754;28;20037;-61
2022/01/18 01:55:35;;;;;;;8.15;2.75;;;28.20;67.60;;;;;;4154375;28;20045;-62
2022/01/18 01:57:58;;;;;;;6.40;2.53;;;28.30;67.10;;;;;;4153048;28;20454;-66
2022/01/18 02:00:21;;;;;;;11.98;3.30;;;28.20;67.10;;;;;;4148763;28;20087;-62
2022/01/18 02:02:44;;;;;;;9.25;3.17;;;28.20;67.60;;;;;;4157170;28;20065;-61
2022/01/18 02:05:08;;;;;;;7.95;3.15;;;28.20;68.10;;;;;;4156149;28;20096;-61
2022/01/18 02:07:31;;;;;;;6.63;2.85;;;28.20;68.40;;;;;;4143906;28;20149;-61
2022/01/18 02:09:53;;;;;;;6.95;3.15;;;28.30;69.10;;;;;;4156138;28;20053;-59
2022/01/18 02:12:20;;;;;;;8.20;2.80;;;28.30;69.00;;;;;;4150639;28;20472;-63
2022/01/18 02:14:46;;;;;;;7.45;3.03;;;28.30;69.20;;;;;;4150044;28;20049;-65
2022/01/18 02:22:32;;;;;;;9.40;3.15;;;28.30;69.10;;;;;;4151714;28;20155;-61
2022/01/18 02:24:54;;;;;;;8.43;2.97;;;28.30;69.20;;;;;;4151287;28;20049;-62
2022/01/18 02:27:17;;;;;;;7.50;3.22;;;28.30;69.30;;;;;;4158780;28;20040;-64
2022/01/18 02:29:41;;;;;;;7.85;2.80;;;28.30;69.20;;;;;;4156620;28;20029;-63
2022/01/18 02:32:05;;;;;;;8.15;2.88;;;28.30;69.30;;;;;;4159658;28;20037;-62
2022/01/18 02:34:28;;;;;;;9.23;3.10;;;28.30;69.30;;;;;;4157398;28;20038;-62
2022/01/18 02:36:53;;;;;;;10.00;3.17;;;28.30;69.30;;;;;;4162055;28;20038;-61
2022/01/18 02:39:21;;;;;;;9.75;2.75;;;28.40;69.40;;;;;;4146541;28;20146;-61
2022/01/18 02:41:43;;;;;;;7.47;3.10;;;28.40;69.20;;;;;;4154847;28;20087;-63
2022/01/18 02:44:10;;;;;;;13.18;3.05;;;28.40;69.60;;;;;;4162886;28;20038;-64
2022/01/18 02:46:34;;;;;;;11.23;3.33;;;28.40;68.80;;;;;;4161815;28;20080;-61
2022/01/18 02:48:58;;;;;;;7.25;3.17;;;28.40;68.60;;;;;;4165320;28;20042;-60
2022/01/18 02:51:21;;;;;;;5.25;2.60;;;28.30;68.60;;;;;;4165125;28;20037;-61
2022/01/18 02:54:10;;;;;;;7.22;2.83;;;28.40;68.60;;;;;;4106514;28;20496;-63
2022/01/18 02:56:44;;;;;;;5.43;2.80;;;28.30;68.50;;;;;;4143983;28;20041;-62
2022/01/18 02:59:19;;;;;;;9.02;3.20;;;28.40;68.50;;;;;;4157165;28;20041;-62
2022/01/18 03:04:23;;;;;;;6.55;2.83;;;28.40;69.00;;;;;;4156507;28;20057;-64
2022/01/18 03:06:46;;;;;;;5.75;2.65;;;28.40;68.60;;;;;;4155783;28;20430;-63
2022/01/18 03:09:08;;;;;;;7.38;3.30;;;28.40;68.40;;;;;;4156163;28;20068;-66
2022/01/18 03:11:31;;;;;;;7.43;2.97;;;28.40;68.40;;;;;;4154232;28;20141;-62
2022/01/18 03:13:53;;;;;;;6.97;2.70;;;28.40;68.40;;;;;;4154433;28;20773;-62
2022/01/18 03:16:16;;;;;;;6.57;2.70;;;28.40;68.40;;;;;;4155983;28;20564;-62
2022/01/18 03:18:38;;;;;;;5.47;2.63;;;28.40;68.40;;;;;;4155050;28;20095;-59
2022/01/18 03:21:01;;;;;;;4.82;2.58;;;28.40;68.30;;;;;;4147730;28;20108;-61
2022/01/18 03:23:24;;;;;;;10.02;3.45;;;28.40;68.20;;;;;;4152905;28;20617;-60
2022/01/18 03:28:15;;;;;;;5.47;2.90;;;28.40;66.90;;;;;;4154557;28;20434;-57
2022/01/18 03:30:48;;;;;;;7.55;3.38;;;28.40;67.20;;;;;;4151719;28;20045;-59
2022/01/18 03:33:17;;;;;;;6.57;2.95;;;28.30;66.50;;;;;;4148544;28;20103;-56
2022/01/18 03:35:41;;;;;;;5.68;3.25;;;28.20;66.30;;;;;;4149471;28;20041;-57
2022/01/18 03:38:04;;;;;;;5.43;2.95;;;28.20;66.20;;;;;;4139482;28;20038;-58
2022/01/18 03:40:26;;;;;;;4.93;2.70;;;28.20;66.30;;;;;;4153773;28;20124;-57
2022/01/18 03:42:49;;;;;;;4.10;2.47;;;28.10;66.00;;;;;;4156168;28;20037;-57
2022/01/18 03:45:27;;;;;;;5.65;2.60;;;28.10;66.10;;;;;;4157698;28;20567;-56
2022/01/18 03:47:50;;;;;;;5.72;2.35;;;28.00;66.60;;;;;;4155244;28;20037;-55
2022/01/18 03:50:14;;;;;;;3.92;2.17;;;28.00;65.80;;;;;;4154913;28;20439;-57
2022/01/18 03:52:37;;;;;;;3.83;2.13;;;28.00;65.90;;;;;;4154181;28;20044;-58
2022/01/18 03:55:00;;;;;;;3.95;2.15;;;27.90;65.90;;;;;;4152407;28;20084;-58
2022/01/18 03:57:22;;;;;;;5.35;2.35;;;27.90;66.00;;;;;;4150156;28;20033;-58
2022/01/18 03:59:46;;;;;;;6.43;2.20;;;27.80;66.60;;;;;;4132788;28;20057;-57
2022/01/18 04:02:09;;;;;;;3.83;2.08;;;27.80;67.20;;;;;;4135852;28;20137;-59
2022/01/18 04:04:32;;;;;;;4.47;2.00;;;27.80;67.70;;;;;;4130973;28;20144;-58
2022/01/18 04:06:54;;;;;;;5.47;2.25;;;27.80;68.10;;;;;;4135953;28;20041;-57
2022/01/18 04:09:19;;;;;;;6.10;1.90;;;27.80;68.30;;;;;;4129948;28;20432;-58
2022/01/18 04:11:41;;;;;;;4.97;2.10;;;27.80;68.40;;;;;;4138489;28;20148;-57
2022/01/18 04:14:04;;;;;;;5.20;2.05;;;27.90;68.30;;;;;;4132411;28;20052;-57
2022/01/18 04:16:26;;;;;;;2.83;1.73;;;27.80;68.20;;;;;;4137669;28;20038;-52
2022/01/18 04:18:59;;;;;;;5.70;2.00;;;27.80;68.10;;;;;;4135878;28;20076;-58
2022/01/18 04:29:09;;;;;;;5.63;1.80;;;27.80;67.80;;;;;;4130374;28;20119;-60
2022/01/18 04:31:32;;;;;;;3.50;1.50;;;27.80;67.80;;;;;;4126744;28;20050;-62
2022/01/18 04:33:55;;;;;;;2.13;1.30;;;27.80;67.80;;;;;;4137893;28;20034;-61
2022/01/18 04:36:17;;;;;;;3.60;1.60;;;27.80;67.70;;;;;;4116703;28;20461;-61
2022/01/18 04:38:40;;;;;;;2.17;1.50;;;27.80;67.70;;;;;;4137691;28;20763;-61
2022/01/18 04:41:07;;;;;;;9.13;2.17;;;27.80;67.60;;;;;;4138579;28;20042;-65
2022/01/18 04:43:51;;;;;;;5.90;1.42;;;27.80;67.50;;;;;;4137958;28;20033;-58
2022/01/18 04:49:01;;;;;;;3.03;1.17;;;27.80;67.30;;;;;;4132289;28;20100;-59
2022/01/18 04:51:23;;;;;;;3.75;1.60;;;27.80;67.40;;;;;;4141834;28;20045;-58
2022/01/18 04:53:55;;;;;;;4.88;1.30;;;27.80;67.60;;;;;;4135778;28;20683;-60
2022/01/18 04:56:27;;;;;;;7.78;1.70;;;27.80;67.60;;;;;;4133040;28;20038;-58
2022/01/18 04:58:50;;;;;;;6.32;1.58;;;27.80;67.90;;;;;;4148706;28;20426;-54
2022/01/18 05:01:13;;;;;;;3.63;1.45;;;27.80;67.50;;;;;;4152170;28;20121;-61
2022/01/18 05:03:36;;;;;;;2.63;1.40;;;27.80;67.30;;;;;;4154676;28;20042;-59
2022/01/18 05:06:03;;;;;;;2.43;1.20;;;27.80;67.00;;;;;;4155444;28;20090;-59
2022/01/18 05:08:26;;;;;;;2.67;1.25;;;27.80;67.00;;;;;;4150566;28;20304;-60
2022/01/18 05:10:55;;;;;;;3.33;1.60;;;27.80;67.30;;;;;;4155497;28;20065;-62
2022/01/18 05:16:07;;;;;;;2.75;1.35;;;27.80;67.20;;;;;;4158466;28;20049;-64
2022/01/18 05:21:20;;;;;;;13.43;1.65;;;27.70;66.80;;;;;;4149797;28;20756;-62
2022/01/18 05:23:43;;;;;;;1.80;0.93;;;27.70;67.10;;;;;;4154695;28;20037;-62
2022/01/18 05:26:05;;;;;;;3.33;1.27;;;27.80;67.10;;;;;;4149403;28;20095;-60
2022/01/18 05:28:28;;;;;;;3.03;1.48;;;27.70;66.50;;;;;;4153106;28;20275;-60
2022/01/18 05:30:50;;;;;;;2.50;1.20;;;27.70;66.20;;;;;;4142847;28;20049;-58
2022/01/18 05:33:14;;;;;;;2.53;0.90;;;27.60;66.40;;;;;;4151453;28;20430;-63
2022/01/18 05:35:37;;;;;;;6.53;1.17;;;27.60;66.90;;;;;;4144801;28;20045;-60
2022/01/18 05:37:59;;;;;;;13.82;1.92;;;27.60;67.20;;;;;;4146987;28;20793;-67
2022/01/18 05:40:23;;;;;;;3.47;1.30;;;27.60;66.70;;;;;;4149292;28;20099;-61
2022/01/18 05:42:45;;;;;;;3.30;1.10;;;27.60;67.00;;;;;;4153338;28;20040;-58
2022/01/18 05:45:09;;;;;;;2.75;1.00;;;27.60;67.10;;;;;;4152412;28;20042;-65
2022/01/18 05:47:31;;;;;;;3.78;1.30;;;27.60;67.20;;;;;;4145864;28;20076;-59
2022/01/18 05:49:54;;;;;;;2.15;1.10;;;27.60;67.40;;;;;;4153564;28;20041;-60
2022/01/18 05:52:17;;;;;;;2.53;1.40;;;27.70;67.40;;;;;;4153727;28;20417;-59
2022/01/18 05:54:40;;;;;;;3.17;1.67;;;27.70;67.40;;;;;;4155727;28;20519;-62
2022/01/18 05:57:02;;;;;;;7.28;2.65;;;27.70;67.30;;;;;;4154812;28;20045;-66
2022/01/18 05:59:34;;;;;;;12.00;5.15;;;27.70;67.20;;;;;;4156752;28;20094;-60
2022/01/18 06:02:02;;;;;;;17.88;6.57;;;27.70;67.10;;;;;;4147808;28;20806;-58
2022/01/18 06:07:06;;;;;;;12.65;7.78;;;27.70;67.30;;;;;;4161160;28;20535;-62
2022/01/18 06:09:28;;;;;;;17.10;8.33;;;27.70;67.20;;;;;;4157835;28;20136;-60
2022/01/18 06:11:51;;;;;;;16.15;8.57;;;27.70;67.30;;;;;;4155692;28;20117;-61
2022/01/18 06:14:15;;;;;;;13.05;7.35;;;27.70;67.30;;;;;;4162806;28;20094;-64
2022/01/18 06:16:38;;;;;;;10.07;6.80;;;27.70;67.30;;;;;;4153507;28;20065;-60
2022/01/18 06:19:00;;;;;;;14.32;6.57;;;27.70;67.20;;;;;;4156360;28;20041;-61
2022/01/18 06:21:25;;;;;;;11.98;6.63;;;27.70;67.20;;;;;;4152452;28;20147;-65
2022/01/18 06:23:48;;;;;;;10.48;5.75;;;27.70;67.20;;;;;;4155504;28;20033;-63
2022/01/18 06:26:15;;;;;;;8.98;5.07;;;27.80;67.40;;;;;;4156517;28;20524;-62
2022/01/18 06:28:37;;;;;;;10.73;4.95;;;27.70;67.20;;;;;;4142450;28;20122;-59
2022/01/18 06:31:00;;;;;;;8.30;4.40;;;27.70;67.20;;;;;;4159717;28;20136;-62
2022/01/18 06:33:23;;;;;;;7.15;4.00;;;27.70;67.10;;;;;;4139187;28;20042;-62
2022/01/18 06:35:46;;;;;;;6.93;3.60;;;27.70;67.10;;;;;;4158655;28;20040;-59
2022/01/18 06:38:10;;;;;;;11.23;3.78;;;27.80;67.10;;;;;;4159739;28;20109;-59
2022/01/18 06:40:33;;;;;;;8.65;3.55;;;27.70;66.90;;;;;;4162098;28;20088;-59
2022/01/18 06:42:55;;;;;;;9.45;2.65;;;27.70;66.90;;;;;;4168879;28;20483;-60
2022/01/18 06:45:18;;;;;;;6.57;2.65;;;27.70;67.00;;;;;;4162339;28;20088;-60
2022/01/18 06:47:41;;;;;;;7.50;2.17;;;27.70;67.10;;;;;;4161513;28;20033;-60
2022/01/18 06:50:05;;;;;;;6.17;1.63;;;27.70;67.20;;;;;;4146515;28;20279;-60
2022/01/18 06:52:28;;;;;;;3.97;1.90;;;27.70;67.40;;;;;;4167446;28;20052;-59
2022/01/18 06:54:51;;;;;;;3.47;1.73;;;27.70;67.30;;;;;;4148063;28;20026;-60
2022/01/18 06:57:13;;;;;;;6.90;2.10;;;27.70;67.40;;;;;;4167446;28;20576;-60
2022/01/18 06:59:36;;;;;;;6.15;1.70;;;27.60;67.50;;;;;;4163428;28;20866;-62
2022/01/18 07:01:59;;;;;;;5.22;1.80;;;27.70;67.60;;;;;;4165807;28;20033;-62
2022/01/18 07:04:23;;;;;;;4.35;1.38;;;27.60;67.50;;;;;;4156148;28;20057;-63
2022/01/18 07:06:46;;;;;;;5.65;1.60;;;27.60;67.40;;;;;;4158602;28;20401;-62
2022/01/18 07:09:09;;;;;;;2.30;1.55;;;27.60;67.40;;;;;;4158764;28;20049;-60
2022/01/18 07:11:32;;;;;;;5.40;1.25;;;27.60;67.40;;;;;;4160328;28;20041;-60
2022/01/18 07:13:55;;;;;;;2.92;1.40;;;27.60;67.40;;;;;;4155956;28;20558;-62
2022/01/18 07:16:21;;;;;;;4.00;1.17;;;27.60;67.60;;;;;;4157002;28;20223;-67
2022/01/18 07:18:44;;;;;;;3.80;1.45;;;27.60;67.40;;;;;;4156512;28;20029;-64
2022/01/18 07:21:09;;;;;;;3.08;1.20;;;27.50;67.40;;;;;;4153003;28;20842;-63
2022/01/18 07:23:34;;;;;;;9.93;1.23;;;27.50;67.40;;;;;;4150542;28;20112;-65
2022/01/18 07:25:57;;;;;;;3.92;1.23;;;27.50;67.40;;;;;;4157883;28;20087;-62
2022/01/18 07:28:20;;;;;;;4.40;1.58;;;27.50;67.50;;;;;;4153090;28;20087;-63
2022/01/18 07:30:44;;;;;;;6.53;1.50;;;27.50;67.40;;;;;;4146166;28;20049;-64
2022/01/18 07:33:09;;;;;;;3.03;1.17;;;27.50;67.50;;;;;;4136661;28;20115;-64
2022/01/18 07:35:34;;;;;;;3.50;1.20;;;27.50;67.60;;;;;;4136857;28;20038;-60
2022/01/18 07:37:59;;;;;;;3.08;1.45;;;27.50;67.60;;;;;;4147032;28;20038;-59
2022/01/18 07:40:21;;;;;;;2.67;1.27;;;27.50;67.60;;;;;;4149110;28;20407;-66
2022/01/18 07:42:45;;;;;;;3.33;1.20;;;27.50;67.70;;;;;;4154583;28;20091;-63
2022/01/18 07:45:08;;;;;;;3.88;1.27;;;27.50;67.70;;;;;;4137777;28;20373;-61
2022/01/18 07:47:31;;;;;;;5.40;1.70;;;27.40;67.70;;;;;;4154334;28;20565;-61
2022/01/18 07:49:54;;;;;;;2.08;1.20;;;27.40;67.70;;;;;;4133832;28;20126;-64
2022/01/18 07:52:18;;;;;;;2.22;1.40;;;27.50;67.70;;;;;;4151673;28;20060;-62
2022/01/18 07:54:41;;;;;;;2.05;1.30;;;27.40;67.50;;;;;;4130288;28;20042;-62
2022/01/18 07:57:05;;;;;;;2.42;1.20;;;27.40;67.60;;;;;;4148711;28;20044;-62
2022/01/18 07:59:28;;;;;;;5.38;1.80;;;27.40;67.50;;;;;;4151687;28;20057;-63
2022/01/18 08:01:51;;;;;;;2.65;1.33;;;27.40;67.50;;;;;;4148430;28;20148;-64
2022/01/18 08:04:15;;;;;;;4.70;1.73;;;27.40;67.50;;;;;;4152906;28;20065;-63
2022/01/18 08:06:38;;;;;;;2.78;1.60;;;27.40;67.50;;;;;;4154820;28;20064;-65
2022/01/18 08:09:00;;;;;;;4.15;1.95;;;27.40;67.50;;;;;;4151407;28;20038;-63
2022/01/18 08:11:23;;;;;;;3.03;1.83;;;27.40;67.40;;;;;;4152709;28;20057;-62
2022/01/18 08:13:49;;;;;;;2.43;1.70;;;27.30;67.40;;;;;;4153002;28;20041;-62
2022/01/18 08:16:46;;;;;;;4.03;2.08;;;27.30;67.30;;;;;;4156922;28;20044;-58
2022/01/18 08:19:04;;;;;;;11.23;2.90;;;27.30;67.40;;;;;;4151923;28;20561;-56
2022/01/18 08:21:27;;;;;;;17.05;3.58;;;27.30;67.50;;;;;;4155259;28;20456;-59
2022/01/18 08:23:50;;;;;;;5.73;2.73;;;27.30;67.50;;;;;;4153490;28;20371;-60
2022/01/18 08:26:13;;;;;;;5.85;3.20;;;27.30;68.20;;;;;;4158980;28;20072;-60
2022/01/18 08:28:36;;;;;;;7.43;3.60;;;27.30;67.50;;;;;;4157032;28;20118;-58
2022/01/18 08:30:59;;;;;;;6.50;3.90;;;27.30;67.50;;;;;;4152283;28;20154;-60
2022/01/18 08:33:23;;;;;;;4.95;3.65;;;27.30;67.50;;;;;;4151744;28;20498;-60
2022/01/18 08:35:46;;;;;;;5.47;3.50;;;27.30;67.50;;;;;;4153956;28;20615;-59
2022/01/18 08:38:08;;;;;;;8.65;4.15;;;27.20;67.40;;;;;;4147372;28;20977;-57
2022/01/18 08:40:31;;;;;;;8.10;4.10;;;27.20;67.60;;;;;;4147063;28;20037;-56
2022/01/18 08:42:54;;;;;;;5.53;3.92;;;27.20;67.90;;;;;;4149948;28;20041;-53
2022/01/18 08:45:16;;;;;;;7.88;3.80;;;27.20;68.10;;;;;;4150442;28;20055;-57
2022/01/18 08:47:39;;;;;;;5.37;3.50;;;27.20;68.50;;;;;;4148164;28;20853;-58
2022/01/18 08:50:04;;;;;;;5.90;3.35;;;27.20;68.60;;;;;;4150904;28;20044;-59
2022/01/18 08:52:27;;;;;;;6.13;3.50;;;27.10;68.40;;;;;;4150931;28;20044;-61
2022/01/18 08:54:49;;;;;;;6.67;3.00;;;27.20;68.40;;;;;;4146937;28;20041;-58
2022/01/18 08:57:14;;;;;;;9.90;3.20;;;27.10;68.50;;;;;;4152533;28;20042;-60
2022/01/18 08:59:37;;;;;;;4.97;3.05;;;27.10;68.70;;;;;;4151769;28;20053;-58
2022/01/18 09:02:00;;;;;;;4.55;3.17;;;27.10;68.70;;;;;;4148693;28;20084;-56
2022/01/18 09:04:23;;;;;;;8.35;3.40;;;27.10;68.80;;;;;;4149944;28;20152;-57
2022/01/18 09:06:48;;;;;;;11.65;3.13;;;27.10;68.70;;;;;;4155768;28;20044;-57
2022/01/18 09:09:14;;;;;;;5.22;3.00;;;27.10;68.90;;;;;;4149972;28;20076;-58
2022/01/18 09:11:37;;;;;;;5.68;3.30;;;27.10;68.70;;;;;;4149979;28;20140;-57
2022/01/18 09:14:00;;;;;;;4.28;2.67;;;27.10;68.70;;;;;;4134379;28;20131;-57
2022/01/18 09:16:22;;;;;;;5.53;3.20;;;27.10;68.70;;;;;;4146892;28;20049;-57
2022/01/18 09:18:45;;;;;;;5.57;3.03;;;27.10;68.80;;;;;;4147447;28;20733;-59
2022/01/18 09:21:08;;;;;;;4.28;2.90;;;27.00;68.70;;;;;;4146972;28;20037;-57
2022/01/18 09:23:31;;;;;;;5.60;3.40;;;27.00;68.60;;;;;;4154526;28;20073;-58
2022/01/18 09:25:54;;;;;;;3.88;2.88;;;27.00;69.10;;;;;;4149537;28;20053;-57
2022/01/18 09:28:16;;;;;;;12.00;3.90;;;27.00;68.70;;;;;;4156271;28;20056;-59
2022/01/18 09:30:39;;;;;;;4.57;3.10;;;27.00;68.70;;;;;;4153241;28;20186;-59
2022/01/18 09:33:05;;;;;;;6.95;3.95;;;27.00;68.60;;;;;;4152000;28;20102;-58
2022/01/18 09:35:28;;;;;;;6.30;3.50;;;27.00;68.60;;;;;;4152470;28;20038;-57
2022/01/18 09:37:52;;;;;;;5.85;3.15;;;27.00;68.60;;;;;;4153609;28;20655;-58
2022/01/18 09:40:19;;;;;;;5.13;3.42;;;27.00;68.60;;;;;;4147830;28;20140;-56
2022/01/18 09:42:44;;;;;;;5.05;3.58;;;26.90;68.60;;;;;;4152841;28;20069;-56
2022/01/18 09:45:10;;;;;;;5.68;3.80;;;26.90;68.80;;;;;;4153239;28;20088;-57
2022/01/18 09:47:33;;;;;;;8.52;3.47;;;26.90;68.70;;;;;;4148780;28;20103;-57
2022/01/18 09:49:58;;;;;;;4.63;3.30;;;26.90;68.80;;;;;;4151237;28;20037;-58
2022/01/18 09:52:21;;;;;;;8.65;3.67;;;26.90;69.00;;;;;;4148126;28;20047;-58
2022/01/18 09:54:44;;;;;;;12.02;4.25;;;26.90;69.10;;;;;;4146861;28;20029;-58
2022/01/18 09:57:06;;;;;;;7.72;4.40;;;26.90;69.40;;;;;;4155804;28;20038;-59
2022/01/18 09:59:29;;;;;;;10.83;4.50;;;26.90;69.30;;;;;;4148347;28;20060;-58
2022/01/18 10:01:53;;;;;;;6.75;4.60;;;26.90;69.30;;;;;;4137761;28;20041;-57
2022/01/18 10:04:30;;;;;;;7.57;4.50;;;26.90;69.40;;;;;;4150423;28;20033;-60
2022/01/18 10:06:56;;;;;;;8.82;4.43;;;26.90;69.10;;;;;;4159399;28;20552;-58
2022/01/18 10:09:20;;;;;;;7.82;4.75;;;26.90;69.10;;;;;;4154005;28;20448;-57
2022/01/18 10:12:16;;;;;;;6.97;4.53;;;26.90;70.00;;;;;;4154941;28;20165;-56
2022/01/18 10:14:43;;;;;;;8.27;4.68;;;26.90;69.60;;;;;;4118455;28;21016;-57
2022/01/18 10:17:07;;;;;;;6.47;4.25;;;26.90;69.40;;;;;;4155016;28;20030;-57
2022/01/18 10:19:42;;;;;;;5.35;3.83;;;26.90;69.30;;;;;;4153909;28;20450;-56
2022/01/18 10:22:12;;;;;;;8.20;4.32;;;26.90;69.00;;;;;;4157751;28;20510;-56
2022/01/18 10:24:35;;;;;;;8.40;4.00;;;26.90;69.10;;;;;;4150696;28;20570;-58
2022/01/18 10:26:58;;;;;;;7.45;4.35;;;26.90;69.00;;;;;;4151460;28;20043;-55
2022/01/18 10:29:37;;;;;;;6.72;3.78;;;26.90;69.00;;;;;;4161943;28;20436;-58
2022/01/18 10:32:10;;;;;;;6.80;4.07;;;26.90;68.80;;;;;;4141673;28;20516;-57
2022/01/18 10:37:07;;;;;;;7.18;4.30;;;26.90;68.90;;;;;;4152775;28;20095;-51
2022/01/18 10:39:39;;;;;;;7.88;4.10;;;26.90;69.10;;;;;;4156434;28;20037;-53
2022/01/18 10:42:13;;;;;;;6.10;3.67;;;26.90;69.20;;;;;;4159284;28;20041;-50
2022/01/18 10:44:35;;;;;;;;;;;26.90;69.10;;;;;;4164998;28;20045;-59
2022/01/18 10:46:58;;;;;;;7.45;3.85;;;26.90;68.70;;;;;;4156078;28;20413;-58
2022/01/18 10:49:35;;;;;;;6.85;3.58;;;26.90;69.10;;;;;;4151795;28;20045;-57
2022/01/18 10:52:02;;;;;;;5.97;3.65;;;26.90;68.90;;;;;;4155799;28;20128;-58
2022/01/18 10:54:45;;;;;;;5.78;3.65;;;26.80;68.80;;;;;;4156063;28;20045;-58
2022/01/18 10:57:11;;;;;;;7.05;4.00;;;26.80;68.70;;;;;;4159957;28;20033;-57
2022/01/18 10:59:38;;;;;;;5.93;3.40;;;26.80;68.70;;;;;;4158133;28;20068;-53
2022/01/18 11:02:16;;;;;;;6.97;3.70;;;26.80;68.80;;;;;;4156921;28;20041;-57
2022/01/18 11:04:40;;;;;;;6.22;3.17;;;26.80;68.40;;;;;;4161956;28;20725;-56
2022/01/18 11:07:03;;;;;;;;;;;26.80;68.60;;;;;;4161900;28;20037;-51
2022/01/18 11:09:26;;;;;;;5.93;3.47;;;26.80;68.50;;;;;;4160435;28;19913;-57
2022/01/18 11:11:49;;;;;;;4.78;3.13;;;26.80;68.70;;;;;;4161992;28;20287;-56
2022/01/18 11:14:16;;;;;;;4.65;2.55;;;26.80;68.60;;;;;;4161890;28;20474;-54
2022/01/18 11:16:43;;;;;;;5.63;3.20;;;26.80;68.50;;;;;;4161956;28;20029;-55
2022/01/18 11:19:07;;;;;;;6.68;3.22;;;26.80;68.50;;;;;;4159888;28;20037;-56
2022/01/18 11:21:29;;;;;;;;;;;26.80;68.60;;;;;;4154642;28;20041;-56
2022/01/18 11:23:54;;;;;;;5.68;3.00;;;26.80;68.40;;;;;;4163288;28;20003;-55
2022/01/18 11:26:19;;;;;;;6.53;3.28;;;26.80;68.40;;;;;;4156427;28;20103;-57
2022/01/18 11:28:42;;;;;;;7.55;3.42;;;26.80;68.60;;;;;;4141944;28;20037;-54
2022/01/18 11:31:10;;;;;;;7.70;3.20;;;26.80;69.30;;;;;;4160634;28;20081;-58
2022/01/18 11:33:37;;;;;;;4.35;2.53;;;26.80;68.60;;;;;;4154820;28;20038;-49
2022/01/18 11:36:11;;;;;;;6.95;3.13;;;26.80;68.70;;;;;;4157092;28;20045;-54
2022/01/18 11:38:51;;;;;;;5.75;2.83;;;26.80;68.50;;;;;;4156431;28;20052;-49
2022/01/18 11:41:24;;;;;;;7.25;3.10;;;26.80;68.40;;;;;;4153600;28;20060;-54
2022/01/18 11:43:46;;;;;;;6.35;3.10;;;26.80;68.60;;;;;;4156815;28;20034;-51
2022/01/18 11:46:30;;;;;;;5.75;2.75;;;26.80;68.50;;;;;;4155078;28;20037;-57
2022/01/18 11:49:16;;;;;;;7.07;2.67;;;26.80;68.30;;;;;;4154966;28;20037;-57
2022/01/18 11:51:44;;;;;;;8.40;2.90;;;26.80;68.20;;;;;;4153099;28;20049;-56
2022/01/18 11:57:26;;;;;;;6.22;3.17;;;26.80;68.40;;;;;;4157569;28;20117;-54
2022/01/18 12:00:05;;;;;;;6.32;2.63;;;26.70;68.30;;;;;;4158348;28;20127;-53
2022/01/18 12:02:37;;;;;;;5.97;2.97;;;26.80;68.20;;;;;;4143442;28;20084;-52
2022/01/18 12:05:07;;;;;;;6.03;2.72;;;26.70;68.10;;;;;;4157349;28;20064;-56
2022/01/18 12:07:39;;;;;;;5.10;2.50;;;26.70;68.10;;;;;;4153057;28;20056;-50
2022/01/18 12:10:25;;;;;;;4.97;3.17;;;26.70;68.00;;;;;;4155885;28;20060;-51
2022/01/18 12:12:49;;;;;;;7.15;2.72;;;26.70;68.00;;;;;;4154813;28;20438;-53
2022/01/18 12:15:18;;;;;;;5.50;2.40;;;26.70;68.00;;;;;;4156045;28;20187;-56
2022/01/18 12:17:57;;;;;;;8.85;3.40;;;26.70;68.10;;;;;;4155399;28;20099;-50
2022/01/18 12:20:40;;;;;;;6.63;3.13;;;26.70;68.20;;;;;;4155962;28;21450;-55
2022/01/18 12:23:07;;;;;;;6.32;2.85;;;26.70;68.10;;;;;;4156124;28;20095;-56
2022/01/18 12:25:33;;;;;;;8.15;3.28;;;26.70;68.20;;;;;;4156442;28;20033;-55
2022/01/18 12:28:01;;;;;;;6.25;2.70;;;26.70;68.10;;;;;;4156834;28;20132;-50
2022/01/18 12:30:39;;;;;;;5.13;3.10;;;26.70;68.10;;;;;;4154400;28;20875;-56
2022/01/18 12:33:19;;;;;;;5.60;2.70;;;26.70;68.10;;;;;;4152258;28;20044;-59
2022/01/18 12:35:42;;;;;;;4.32;2.70;;;26.70;68.20;;;;;;4156506;28;20083;-58
2022/01/18 12:38:10;;;;;;;5.18;2.90;;;26.70;68.00;;;;;;4151776;28;20101;-58
2022/01/18 12:40:35;;;;;;;5.50;2.75;;;26.60;68.10;;;;;;4154441;28;20049;-58
2022/01/18 12:45:33;;;;;;;6.70;3.00;;;26.60;67.90;;;;;;4152344;28;20415;-59
2022/01/18 12:48:02;;;;;;;4.60;2.60;;;26.60;68.00;;;;;;4153966;28;20075;-59
2022/01/18 12:50:46;;;;;;;4.07;2.45;;;26.60;67.90;;;;;;4143295;28;20430;-57
2022/01/18 12:53:18;;;;;;;7.40;2.75;;;26.60;67.80;;;;;;4152526;28;20038;-60
2022/01/18 12:55:46;;;;;;;4.85;2.60;;;26.60;67.80;;;;;;4144989;28;20053;-59
2022/01/18 12:58:19;;;;;;;4.47;2.40;;;26.60;67.80;;;;;;4143156;28;20117;-59
2022/01/18 13:00:50;;;;;;;5.68;2.55;;;26.60;67.90;;;;;;4158344;28;20045;-55
2022/01/18 13:03:17;;;;;;;7.72;2.58;;;26.60;67.90;;;;;;4157202;28;20042;-58
2022/01/18 13:05:42;;;;;;;5.97;2.80;;;26.60;67.80;;;;;;4158969;28;20120;-54
2022/01/18 13:08:06;;;;;;;4.57;2.22;;;26.60;67.70;;;;;;4142162;28;20042;-58
2022/01/18 13:10:41;;;;;;;5.35;2.30;;;26.60;67.70;;;;;;4159046;28;20526;-57
2022/01/18 13:13:04;;;;;;;5.25;2.53;;;26.60;67.70;;;;;;4157946;28;20122;-53
2022/01/18 13:15:51;;;;;;;5.45;2.55;;;26.50;67.60;;;;;;4157589;28;20120;-58
2022/01/18 13:23:57;;;;;;;6.43;2.45;;;26.50;67.60;;;;;;4157234;28;20489;-58
2022/01/18 13:26:52;;;;;;;7.75;2.58;;;26.40;67.60;;;;;;4140805;28;20120;-53
2022/01/18 13:29:28;;;;;;;6.03;2.38;;;26.40;67.70;;;;;;4158609;28;20052;-58
2022/01/18 13:32:20;;;;;;;6.63;2.60;;;26.40;67.80;;;;;;4155466;28;20110;-55
2022/01/18 13:34:45;;;;;;;4.30;2.20;;;26.40;67.80;;;;;;4155824;28;20109;-54
2022/01/18 13:37:12;;;;;;;5.13;2.60;;;26.40;67.80;;;;;;4155300;28;20044;-57
2022/01/18 13:39:39;;;;;;;5.68;2.53;;;26.40;67.80;;;;;;4157530;28;20072;-56
2022/01/18 13:42:03;;;;;;;5.65;2.65;;;26.40;67.90;;;;;;4156957;28;20781;-53
2022/01/18 13:44:27;;;;;;;6.55;2.50;;;26.40;67.90;;;;;;4155747;28;20422;-56
2022/01/18 13:46:51;;;;;;;4.85;2.20;;;26.40;67.90;;;;;;4158416;28;20175;-58
2022/01/18 13:49:14;;;;;;;6.50;2.85;;;26.40;67.90;;;;;;4156486;28;20045;-58
2022/01/18 13:51:37;;;;;;;6.72;2.65;;;26.30;67.80;;;;;;4157417;28;20510;-56
2022/01/18 13:54:04;;;;;;;;;;;26.30;67.80;;;;;;4158172;28;20119;-56